createdAt,value
2017-04-07T00:00:36.433Z,64.80
2017-04-07T00:01:36.544Z,64.90
2017-04-07T00:02:37.418Z,64.90
2017-04-07T00:03:38.178Z,64.80
2017-04-07T00:04:38.224Z,65.00
2017-04-07T00:05:38.243Z,64.90
2017-04-07T00:06:38.511Z,65.00
2017-04-07T00:07:38.875Z,65.10
2017-04-07T00:08:39.705Z,65.50
2017-04-07T00:09:39.760Z,65.10
2017-04-07T00:10:39.777Z,65.10
2017-04-07T00:11:39.992Z,65.20
2017-04-07T00:12:40.450Z,65.20
2017-04-07T00:13:41.214Z,65.20
2017-04-07T00:14:41.279Z,65.20
2017-04-07T00:15:42.248Z,65.20
2017-04-07T00:16:48.986Z,65.20
2017-04-07T00:17:49.946Z,65.30
2017-04-07T00:18:50.059Z,65.50
2017-04-07T00:19:50.082Z,65.40
2017-04-07T00:20:50.117Z,65.60
2017-04-07T00:21:50.206Z,65.50
2017-04-07T00:22:50.751Z,65.60
2017-04-07T00:23:51.543Z,65.90
2017-04-07T00:24:51.565Z,66.00
2017-04-07T00:25:51.597Z,66.00
2017-04-07T00:26:52.375Z,66.00
2017-04-07T00:27:52.732Z,66.00
2017-04-07T00:28:52.795Z,66.20
2017-04-07T00:29:52.827Z,66.50
2017-04-07T00:30:52.954Z,66.60
2017-04-07T00:32:53.798Z,66.80
2017-04-07T00:33:54.726Z,66.80
2017-04-07T00:34:55.507Z,66.80
2017-04-07T00:35:55.530Z,67.10
2017-04-07T00:36:55.530Z,67.10
2017-04-07T00:37:55.835Z,67.10
2017-04-07T00:38:55.869Z,67.10
2017-04-07T00:39:56.684Z,67.50
2017-04-07T00:40:56.840Z,67.00
2017-04-07T00:41:56.833Z,67.10
2017-04-07T00:42:57.224Z,67.10
2017-04-07T00:43:57.265Z,66.90
2017-04-07T00:44:57.277Z,66.90
2017-04-07T00:45:57.282Z,66.90
2017-04-07T00:46:57.286Z,66.70
2017-04-07T00:47:57.676Z,66.80
2017-04-07T00:48:57.703Z,66.80
2017-04-07T00:50:04.292Z,66.90
2017-04-07T00:51:04.464Z,67.00
2017-04-07T00:52:05.207Z,67.10
2017-04-07T00:53:05.703Z,66.90
2017-04-07T00:54:06.498Z,66.90
2017-04-07T00:55:06.542Z,66.60
2017-04-07T00:56:07.299Z,66.60
2017-04-07T00:57:07.332Z,66.60
2017-04-07T00:58:07.707Z,66.60
2017-04-07T00:59:07.743Z,66.40
2017-04-07T01:00:07.749Z,67.10
2017-04-07T01:01:07.776Z,66.40
2017-04-07T01:02:07.774Z,66.40
2017-04-07T01:03:08.122Z,66.50
2017-04-07T01:04:08.885Z,66.20
2017-04-07T01:05:08.972Z,66.30
2017-04-07T01:06:08.961Z,66.20
2017-04-07T01:07:09.002Z,66.00
2017-04-07T01:08:09.366Z,65.90
2017-04-07T01:09:10.204Z,66.10
2017-04-07T01:10:10.998Z,66.10
2017-04-07T01:11:10.978Z,66.00
2017-04-07T01:12:10.962Z,66.10
2017-04-07T01:13:11.345Z,66.10
2017-04-07T01:14:11.352Z,66.10
2017-04-07T01:15:12.122Z,66.10
2017-04-07T01:16:12.917Z,66.00
2017-04-07T01:17:13.677Z,66.10
2017-04-07T01:18:14.149Z,66.10
2017-04-07T01:19:14.890Z,66.20
2017-04-07T01:20:14.908Z,66.10
2017-04-07T01:21:14.967Z,66.20
2017-04-07T01:22:15.054Z,66.40
2017-04-07T01:23:15.386Z,66.50
2017-04-07T01:24:15.410Z,66.50
2017-04-07T01:25:15.450Z,66.60
2017-04-07T01:26:16.291Z,66.50
2017-04-07T01:27:17.324Z,66.60
2017-04-07T01:28:17.714Z,66.60
2017-04-07T01:29:17.742Z,66.50
2017-04-07T01:30:17.804Z,66.50
2017-04-07T01:31:17.858Z,66.70
2017-04-07T01:32:17.864Z,66.80
2017-04-07T01:33:18.969Z,66.60
2017-04-07T01:34:19.022Z,66.80
2017-04-07T01:35:19.054Z,66.70
2017-04-07T01:36:19.068Z,66.50
2017-04-07T01:37:19.148Z,66.50
2017-04-07T01:38:19.489Z,66.50
2017-04-07T01:39:20.267Z,66.40
2017-04-07T01:40:21.121Z,66.50
2017-04-07T01:41:21.109Z,66.50
2017-04-07T01:42:21.107Z,66.70
2017-04-07T01:43:21.447Z,66.70
2017-04-07T01:44:21.493Z,66.80
2017-04-07T01:45:22.274Z,67.20
2017-04-07T01:46:22.339Z,67.30
2017-04-07T01:47:22.347Z,67.30
2017-04-07T01:48:22.735Z,67.20
2017-04-07T01:49:23.547Z,67.30
2017-04-07T01:50:23.554Z,67.30
2017-04-07T01:51:23.771Z,67.30
2017-04-07T01:52:23.793Z,67.50
2017-04-07T01:53:24.195Z,67.40
2017-04-07T01:54:24.241Z,67.40
2017-04-07T01:55:24.319Z,67.20
2017-04-07T01:56:25.112Z,67.00
2017-04-07T01:57:25.134Z,67.00
2017-04-07T01:58:25.468Z,67.00
2017-04-07T01:59:25.625Z,67.80
2017-04-07T02:00:25.658Z,67.00
2017-04-07T02:01:25.626Z,67.20
2017-04-07T02:02:25.673Z,67.00
2017-04-07T02:03:26.009Z,67.00
2017-04-07T02:04:26.790Z,66.90
2017-04-07T02:05:26.848Z,67.20
2017-04-07T02:06:27.647Z,67.10
2017-04-07T02:07:27.700Z,67.00
2017-04-07T02:08:28.297Z,67.10
2017-04-07T02:09:28.327Z,67.00
2017-04-07T02:10:28.354Z,67.10
2017-04-07T02:11:28.393Z,67.10
2017-04-07T02:12:28.450Z,67.30
2017-04-07T02:13:28.938Z,67.30
2017-04-07T02:14:29.682Z,67.30
2017-04-07T02:15:29.803Z,67.50
2017-04-07T02:16:29.825Z,67.50
2017-04-07T02:17:29.838Z,67.40
2017-04-07T02:18:30.168Z,67.30
2017-04-07T02:19:30.189Z,67.20
2017-04-07T02:20:30.211Z,67.20
2017-04-07T02:21:30.346Z,67.30
2017-04-07T02:22:30.555Z,67.20
2017-04-07T02:23:30.946Z,67.10
2017-04-07T02:24:30.980Z,67.10
2017-04-07T02:25:31.026Z,67.10
2017-04-07T02:26:31.051Z,67.10
2017-04-07T02:27:31.052Z,67.10
2017-04-07T02:28:31.383Z,67.00
2017-04-07T02:29:32.139Z,67.00
2017-04-07T02:30:32.279Z,67.10
2017-04-07T02:31:32.361Z,67.10
2017-04-07T02:32:32.407Z,67.10
2017-04-07T02:33:32.850Z,67.30
2017-04-07T02:34:33.649Z,67.40
2017-04-07T02:35:33.667Z,68.40
2017-04-07T02:36:33.741Z,67.70
2017-04-07T02:37:33.774Z,67.80
2017-04-07T02:38:34.166Z,67.70
2017-04-07T02:39:34.201Z,67.70
2017-04-07T02:40:34.276Z,67.70
2017-04-07T02:41:34.300Z,68.40
2017-04-07T02:42:34.358Z,67.80
2017-04-07T02:43:35.469Z,67.80
2017-04-07T02:44:35.531Z,67.80
2017-04-07T02:45:35.547Z,67.80
2017-04-07T02:46:35.570Z,67.80
2017-04-07T02:47:35.561Z,67.80
2017-04-07T02:48:35.920Z,67.80
2017-04-07T02:49:36.675Z,67.70
2017-04-07T02:50:36.686Z,67.80
2017-04-07T02:51:36.688Z,67.70
2017-04-07T02:52:36.725Z,67.80
2017-04-07T02:53:37.074Z,67.80
2017-04-07T02:54:37.850Z,67.90
2017-04-07T02:55:37.890Z,67.80
2017-04-07T02:56:37.921Z,67.80
2017-04-07T02:57:38.752Z,67.80
2017-04-07T02:58:39.982Z,67.80
2017-04-07T02:59:40.049Z,67.70
2017-04-07T03:00:40.066Z,67.80
2017-04-07T03:01:40.070Z,67.70
2017-04-07T03:02:40.058Z,67.70
2017-04-07T03:03:40.526Z,67.70
2017-04-07T03:04:41.317Z,67.70
2017-04-07T03:05:41.332Z,67.80
2017-04-07T03:06:41.398Z,67.80
2017-04-07T03:07:41.414Z,67.80
2017-04-07T03:08:41.771Z,67.80
2017-04-07T03:09:42.536Z,68.40
2017-04-07T03:10:42.586Z,67.80
2017-04-07T03:11:42.667Z,67.90
2017-04-07T03:12:42.672Z,67.90
2017-04-07T03:13:43.133Z,67.90
2017-04-07T03:15:43.507Z,67.90
2017-04-07T03:16:43.534Z,67.90
2017-04-07T03:17:43.586Z,67.90
2017-04-07T03:18:44.602Z,67.90
2017-04-07T03:19:45.497Z,67.90
2017-04-07T03:20:45.558Z,67.90
2017-04-07T03:21:45.594Z,67.90
2017-04-07T03:22:45.631Z,67.90
2017-04-07T03:23:46.102Z,68.10
2017-04-07T03:24:46.131Z,68.30
2017-04-07T03:25:46.134Z,68.00
2017-04-07T03:26:46.243Z,68.60
2017-04-07T03:27:46.312Z,68.70
2017-04-07T03:28:47.455Z,68.80
2017-04-07T03:30:47.883Z,68.80
2017-04-07T03:31:47.894Z,68.90
2017-04-07T03:32:47.965Z,68.90
2017-04-07T03:33:48.254Z,69.20
2017-04-07T03:34:48.319Z,69.00
2017-04-07T03:35:48.484Z,69.30
2017-04-07T03:36:48.598Z,69.20
2017-04-07T03:37:48.636Z,69.10
2017-04-07T03:38:49.956Z,69.00
2017-04-07T03:39:50.126Z,69.30
2017-04-07T03:40:50.163Z,69.40
2017-04-07T03:41:50.167Z,69.40
2017-04-07T03:42:50.186Z,69.50
2017-04-07T03:43:51.327Z,69.90
2017-04-07T03:44:52.091Z,69.80
2017-04-07T03:45:52.107Z,69.70
2017-04-07T03:46:52.102Z,70.50
2017-04-07T03:47:52.118Z,69.80
2017-04-07T03:48:52.466Z,69.90
2017-04-07T03:49:52.494Z,70.10
2017-04-07T03:50:53.280Z,70.00
2017-04-07T03:51:53.313Z,70.10
2017-04-07T03:52:54.130Z,70.30
2017-04-07T03:53:54.771Z,70.00
2017-04-07T03:54:55.530Z,70.20
2017-04-07T03:55:55.622Z,70.20
2017-04-07T03:56:55.733Z,70.20
2017-04-07T03:57:56.524Z,70.10
2017-04-07T03:58:57.054Z,70.10
2017-04-07T03:59:57.070Z,70.30
2017-04-07T04:00:57.059Z,70.20
2017-04-07T04:01:57.080Z,70.10
2017-04-07T04:02:57.147Z,70.20
2017-04-07T04:03:57.690Z,70.20
2017-04-07T04:04:58.446Z,70.30
2017-04-07T04:05:58.499Z,70.40
2017-04-07T04:06:58.559Z,70.30
2017-04-07T04:07:58.592Z,70.30
2017-04-07T04:08:59.086Z,70.00
2017-04-07T04:09:59.227Z,70.30
2017-04-07T04:10:59.249Z,70.20
2017-04-07T04:11:59.253Z,70.40
2017-04-07T04:12:59.265Z,70.50
2017-04-07T04:13:59.649Z,70.60
2017-04-07T04:14:59.701Z,70.60
2017-04-07T04:15:59.706Z,70.50
2017-04-07T04:16:59.689Z,70.40
2017-04-07T04:17:59.701Z,70.70
2017-04-07T04:19:01.061Z,70.50
2017-04-07T04:20:01.863Z,70.30
2017-04-07T04:21:01.875Z,70.40
2017-04-07T04:22:01.882Z,70.30
2017-04-07T04:23:01.875Z,70.40
2017-04-07T04:24:02.335Z,70.40
2017-04-07T04:25:02.384Z,70.50
2017-04-07T04:26:02.471Z,70.50
2017-04-07T04:27:08.913Z,70.50
2017-04-07T04:28:09.674Z,70.60
2017-04-07T04:29:10.125Z,70.60
2017-04-07T04:30:10.153Z,70.60
2017-04-07T04:31:11.026Z,70.50
2017-04-07T04:32:11.044Z,70.60
2017-04-07T04:33:11.055Z,70.50
2017-04-07T04:34:11.118Z,70.30
2017-04-07T04:35:14.785Z,70.90
2017-04-07T04:36:15.512Z,71.00
2017-04-07T04:37:17.529Z,70.40
2017-04-07T04:38:18.384Z,70.50
2017-04-07T04:39:18.821Z,70.60
2017-04-07T04:40:19.505Z,70.60
2017-04-07T04:41:19.603Z,70.70
2017-04-07T04:42:19.789Z,70.70
2017-04-07T04:43:19.794Z,71.40
2017-04-07T04:44:20.160Z,70.80
2017-04-07T04:45:20.932Z,70.60
2017-04-07T04:46:21.786Z,70.50
2017-04-07T04:47:21.796Z,70.50
2017-04-07T04:48:21.880Z,70.50
2017-04-07T04:49:22.258Z,70.40
2017-04-07T04:50:22.291Z,70.30
2017-04-07T04:51:22.331Z,70.40
2017-04-07T04:52:22.473Z,70.40
2017-04-07T04:53:23.310Z,71.10
2017-04-07T04:54:23.814Z,70.30
2017-04-07T04:55:23.870Z,70.20
2017-04-07T04:56:23.886Z,70.10
2017-04-07T04:57:23.891Z,70.20
2017-04-07T04:58:23.867Z,70.20
2017-04-07T04:59:24.250Z,70.20
2017-04-07T05:00:24.990Z,70.30
2017-04-07T05:01:25.047Z,70.40
2017-04-07T05:02:25.192Z,70.40
2017-04-07T05:03:25.297Z,70.50
2017-04-07T05:04:25.835Z,70.50
2017-04-07T05:05:25.842Z,70.60
2017-04-07T05:06:25.886Z,70.60
2017-04-07T05:07:25.886Z,70.50
2017-04-07T05:08:26.095Z,70.50
2017-04-07T05:09:26.427Z,70.40
2017-04-07T05:10:26.450Z,70.30
2017-04-07T05:11:26.469Z,70.20
2017-04-07T05:12:26.597Z,70.20
2017-04-07T05:13:26.597Z,70.10
2017-04-07T05:14:27.694Z,70.10
2017-04-07T05:15:27.733Z,70.00
2017-04-07T05:16:28.524Z,70.00
2017-04-07T05:17:28.592Z,69.80
2017-04-07T05:18:28.639Z,69.70
2017-04-07T05:19:29.101Z,69.80
2017-04-07T05:20:30.051Z,69.80
2017-04-07T05:21:30.217Z,69.90
2017-04-07T05:22:30.395Z,69.80
2017-04-07T05:23:30.450Z,69.80
2017-04-07T05:24:31.549Z,70.00
2017-04-07T05:25:31.584Z,69.80
2017-04-07T05:26:31.614Z,69.80
2017-04-07T05:27:32.363Z,70.00
2017-04-07T05:28:32.356Z,70.10
2017-04-07T05:29:32.710Z,69.90
2017-04-07T05:30:32.744Z,69.90
2017-04-07T05:31:33.513Z,69.80
2017-04-07T05:32:33.866Z,69.80
2017-04-07T05:33:33.917Z,69.50
2017-04-07T05:34:34.404Z,69.50
2017-04-07T05:35:40.974Z,69.70
2017-04-07T05:36:41.166Z,69.70
2017-04-07T05:37:57.262Z,69.70
2017-04-07T05:39:06.386Z,69.70
2017-04-07T05:40:12.576Z,69.70
2017-04-07T05:41:30.207Z,69.70
2017-04-07T05:42:48.825Z,69.60
2017-04-07T05:43:50.002Z,69.80
2017-04-07T05:44:50.464Z,69.70
2017-04-07T05:45:51.284Z,69.50
2017-04-07T05:46:52.105Z,69.80
2017-04-07T05:47:52.195Z,69.20
2017-04-07T05:48:52.201Z,69.20
2017-04-07T05:49:52.639Z,69.20
2017-04-07T05:50:52.686Z,69.30
2017-04-07T05:51:53.488Z,69.30
2017-04-07T05:52:55.860Z,69.30
2017-04-07T05:53:55.819Z,69.40
2017-04-07T05:54:56.157Z,69.60
2017-04-07T05:56:57.762Z,69.50
2017-04-07T05:57:57.782Z,69.60
2017-04-07T05:58:57.840Z,69.50
2017-04-07T05:59:58.352Z,69.60
2017-04-07T06:00:58.443Z,70.00
2017-04-07T06:01:58.471Z,69.80
2017-04-07T06:02:58.582Z,69.80
2017-04-07T06:03:58.611Z,69.90
2017-04-07T06:04:59.157Z,70.50
2017-04-07T06:05:59.188Z,69.70
2017-04-07T06:07:00.074Z,69.60
2017-04-07T06:08:00.085Z,69.80
2017-04-07T06:09:00.099Z,69.80
2017-04-07T06:10:00.433Z,69.70
2017-04-07T06:11:00.469Z,68.40
2017-04-07T06:12:00.524Z,69.00
2017-04-07T06:13:00.660Z,68.50
2017-04-07T06:14:01.449Z,67.30
2017-04-07T06:15:01.923Z,67.70
2017-04-07T06:16:02.773Z,67.80
2017-04-07T06:17:02.915Z,67.90
2017-04-07T06:18:02.949Z,67.40
2017-04-07T06:19:03.132Z,67.80
2017-04-07T06:20:03.480Z,68.50
2017-04-07T06:21:04.610Z,67.80
2017-04-07T06:22:04.601Z,67.80
2017-04-07T06:23:04.655Z,67.90
2017-04-07T06:24:04.807Z,67.90
2017-04-07T06:25:05.245Z,67.70
2017-04-07T06:26:05.410Z,67.10
2017-04-07T06:27:05.394Z,67.10
2017-04-07T06:28:05.434Z,66.70
2017-04-07T06:29:05.674Z,66.60
2017-04-07T06:30:05.991Z,66.60
2017-04-07T06:31:06.031Z,66.80
2017-04-07T06:32:06.033Z,66.80
2017-04-07T06:33:06.089Z,67.30
2017-04-07T06:34:06.204Z,66.60
2017-04-07T06:35:06.235Z,66.70
2017-04-07T06:36:07.075Z,67.00
2017-04-07T06:37:07.098Z,66.80
2017-04-07T06:38:07.185Z,66.80
2017-04-07T06:39:07.182Z,66.90
2017-04-07T06:40:08.844Z,67.70
2017-04-07T06:41:10.134Z,66.80
2017-04-07T06:42:10.169Z,66.80
2017-04-07T06:44:10.585Z,66.60
2017-04-07T06:45:11.126Z,66.70
2017-04-07T06:46:11.921Z,66.80
2017-04-07T06:47:12.035Z,66.70
2017-04-07T06:48:12.035Z,66.90
2017-04-07T06:49:12.018Z,67.00
2017-04-07T06:50:12.365Z,66.50
2017-04-07T06:51:12.472Z,66.80
2017-04-07T06:52:12.521Z,66.20
2017-04-07T06:53:12.550Z,66.20
2017-04-07T06:54:12.715Z,66.40
2017-04-07T06:55:14.664Z,66.60
2017-04-07T06:56:15.582Z,66.50
2017-04-07T06:57:16.338Z,66.40
2017-04-07T06:58:17.129Z,66.50
2017-04-07T06:59:17.186Z,66.00
2017-04-07T07:00:17.826Z,65.90
2017-04-07T07:01:17.948Z,65.90
2017-04-07T07:02:18.029Z,65.90
2017-04-07T07:03:18.825Z,65.80
2017-04-07T07:04:18.933Z,65.70
2017-04-07T07:05:20.149Z,65.90
2017-04-07T07:06:20.940Z,66.40
2017-04-07T07:07:20.995Z,65.90
2017-04-07T07:08:21.882Z,65.70
2017-04-07T07:09:21.927Z,65.90
2017-04-07T07:10:23.050Z,65.70
2017-04-07T07:11:23.788Z,65.90
2017-04-07T07:12:24.637Z,65.60
2017-04-07T07:13:24.630Z,65.50
2017-04-07T07:14:24.651Z,66.00
2017-04-07T07:15:25.004Z,65.80
2017-04-07T07:16:25.321Z,65.80
2017-04-07T07:17:25.467Z,65.90
2017-04-07T07:18:25.783Z,66.10
2017-04-07T07:19:26.152Z,65.60
2017-04-07T07:20:26.505Z,66.20
2017-04-07T07:21:27.408Z,66.10
2017-04-07T07:22:27.525Z,66.30
2017-04-07T07:23:30.484Z,66.20
2017-04-07T07:24:31.427Z,66.10
2017-04-07T07:25:31.880Z,66.10
2017-04-07T07:26:32.035Z,65.90
2017-04-07T07:27:34.075Z,66.00
2017-04-07T07:28:35.219Z,65.80
2017-04-07T07:29:35.264Z,65.80
2017-04-07T07:30:35.624Z,65.80
2017-04-07T07:31:35.672Z,65.50
2017-04-07T07:32:36.426Z,65.50
2017-04-07T07:33:37.059Z,65.70
2017-04-07T07:34:37.354Z,65.70
2017-04-07T07:35:38.483Z,65.70
2017-04-07T07:36:38.527Z,66.50
2017-04-07T07:37:38.718Z,65.80
2017-04-07T07:38:39.378Z,65.80
2017-04-07T07:39:39.772Z,65.90
2017-04-07T07:40:40.208Z,66.00
2017-04-07T07:41:40.461Z,66.10
2017-04-07T07:42:40.680Z,66.00
2017-04-07T07:43:41.014Z,66.10
2017-04-07T07:44:41.046Z,66.10
2017-04-07T07:45:41.523Z,66.00
2017-04-07T07:46:41.674Z,66.50
2017-04-07T07:47:41.752Z,66.00
2017-04-07T07:48:41.937Z,66.10
2017-04-07T07:49:42.106Z,65.90
2017-04-07T07:50:42.558Z,65.90
2017-04-07T07:51:42.629Z,65.80
2017-04-07T07:52:43.503Z,65.90
2017-04-07T07:53:45.330Z,66.00
2017-04-07T07:54:45.390Z,65.80
2017-04-07T07:55:45.855Z,65.60
2017-04-07T07:56:46.777Z,65.60
2017-04-07T07:57:46.838Z,65.70
2017-04-07T07:58:46.916Z,65.80
2017-04-07T07:59:47.066Z,66.00
2017-04-07T08:00:47.422Z,65.90
2017-04-07T08:01:48.255Z,65.90
2017-04-07T08:02:48.566Z,65.90
2017-04-07T08:03:48.662Z,65.80
2017-04-07T08:04:48.713Z,66.00
2017-04-07T08:05:49.111Z,66.00
2017-04-07T08:06:49.267Z,65.90
2017-04-07T08:07:50.231Z,65.70
2017-04-07T08:08:50.854Z,65.90
2017-04-07T08:09:51.435Z,65.60
2017-04-07T08:10:52.209Z,65.80
2017-04-07T08:12:53.226Z,65.80
2017-04-07T08:13:53.544Z,65.90
2017-04-07T08:14:53.856Z,65.90
2017-04-07T08:15:54.367Z,65.70
2017-04-07T08:16:54.654Z,65.60
2017-04-07T08:17:54.912Z,65.40
2017-04-07T08:18:55.094Z,65.60
2017-04-07T08:19:55.314Z,65.30
2017-04-07T08:20:55.893Z,65.40
2017-04-07T08:21:55.923Z,65.30
2017-04-07T08:22:55.971Z,65.40
2017-04-07T08:23:57.316Z,65.40
2017-04-07T08:24:57.876Z,65.90
2017-04-07T08:25:59.449Z,65.30
2017-04-07T08:26:59.583Z,65.40
2017-04-07T08:27:59.894Z,65.70
2017-04-07T08:29:00.231Z,65.70
2017-04-07T08:30:00.404Z,65.90
2017-04-07T08:31:01.672Z,65.90
2017-04-07T08:32:02.001Z,66.10
2017-04-07T08:33:03.058Z,66.20
2017-04-07T08:34:03.270Z,66.30
2017-04-07T08:35:04.295Z,66.40
2017-04-07T08:36:04.979Z,66.40
2017-04-07T08:37:08.216Z,66.50
2017-04-07T08:38:08.664Z,66.50
2017-04-07T08:39:09.702Z,66.90
2017-04-07T08:40:09.983Z,66.80
2017-04-07T08:41:10.801Z,66.90
2017-04-07T08:42:11.051Z,67.00
2017-04-07T08:43:12.189Z,67.10
2017-04-07T08:44:13.340Z,67.10
2017-04-07T08:45:15.212Z,67.30
2017-04-07T08:46:15.942Z,67.20
2017-04-07T08:47:16.070Z,67.50
2017-04-07T08:48:16.381Z,67.60
2017-04-07T08:49:16.630Z,67.60
2017-04-07T08:50:16.982Z,67.70
2017-04-07T08:51:17.639Z,67.70
2017-04-07T08:52:17.882Z,67.80
2017-04-07T08:53:18.119Z,68.30
2017-04-07T08:54:19.580Z,68.30
2017-04-07T08:55:20.156Z,68.40
2017-04-07T08:56:20.704Z,68.50
2017-04-07T08:57:21.025Z,68.20
2017-04-07T08:58:21.216Z,68.60
2017-04-07T08:59:22.154Z,68.70
2017-04-07T09:00:23.355Z,68.70
2017-04-07T09:01:23.897Z,68.70
2017-04-07T09:02:24.306Z,68.70
2017-04-07T09:03:24.736Z,68.70
2017-04-07T09:04:26.625Z,68.70
2017-04-07T09:05:29.194Z,68.80
2017-04-07T09:06:29.707Z,68.80
2017-04-07T09:07:29.982Z,68.80
2017-04-07T09:08:30.122Z,68.90
2017-04-07T09:09:30.377Z,68.90
2017-04-07T09:10:30.663Z,68.90
2017-04-07T09:11:31.923Z,69.00
2017-04-07T09:12:32.175Z,69.00
2017-04-07T09:13:32.465Z,69.00
2017-04-07T09:14:32.687Z,69.00
2017-04-07T09:15:33.109Z,69.00
2017-04-07T09:16:33.715Z,69.00
2017-04-07T09:17:34.036Z,69.10
2017-04-07T09:18:34.416Z,69.10
2017-04-07T09:19:35.198Z,69.10
2017-04-07T09:20:35.512Z,69.00
2017-04-07T09:21:35.946Z,69.00
2017-04-07T09:22:38.081Z,70.10
2017-04-07T09:23:38.651Z,69.90
2017-04-07T09:24:38.875Z,70.20
2017-04-07T09:25:39.501Z,70.20
2017-04-07T09:26:40.113Z,70.30
2017-04-07T09:27:40.324Z,70.30
2017-04-07T09:28:40.596Z,70.40
2017-04-07T09:29:40.714Z,70.60
2017-04-07T09:30:40.971Z,70.80
2017-04-07T09:31:41.609Z,70.80
2017-04-07T09:32:42.007Z,71.00
2017-04-07T09:33:42.622Z,70.90
2017-04-07T09:34:42.902Z,70.70
2017-04-07T09:35:43.303Z,70.60
2017-04-07T09:36:44.124Z,70.80
2017-04-07T09:37:45.383Z,70.80
2017-04-07T09:38:45.645Z,70.50
2017-04-07T09:39:45.938Z,70.40
2017-04-07T09:40:46.102Z,70.30
2017-04-07T09:41:46.754Z,70.20
2017-04-07T09:42:47.560Z,70.40
2017-04-07T09:43:49.272Z,70.40
2017-04-07T09:44:49.568Z,70.30
2017-04-07T09:45:49.654Z,70.40
2017-04-07T09:46:50.988Z,70.50
2017-04-07T09:47:52.062Z,70.50
2017-04-07T09:48:52.346Z,70.40
2017-04-07T09:49:53.468Z,70.40
2017-04-07T09:50:58.083Z,70.90
2017-04-07T09:51:59.322Z,71.00
2017-04-07T09:53:00.087Z,71.00
2017-04-07T09:54:00.264Z,71.10
2017-04-07T09:55:00.427Z,71.10
2017-04-07T09:56:00.889Z,71.00
2017-04-07T09:57:01.405Z,71.20
2017-04-07T09:58:02.475Z,70.80
2017-04-07T09:59:02.586Z,70.40
2017-04-07T10:00:02.767Z,70.40
2017-04-07T10:01:02.988Z,70.20
2017-04-07T10:02:03.371Z,70.30
2017-04-07T10:03:04.871Z,70.10
2017-04-07T10:04:04.972Z,70.10
2017-04-07T10:05:05.026Z,70.60
2017-04-07T10:06:05.238Z,70.30
2017-04-07T10:07:05.698Z,70.30
2017-04-07T10:08:05.750Z,69.80
2017-04-07T10:09:06.247Z,69.80
2017-04-07T10:10:06.393Z,70.00
2017-04-07T10:11:07.144Z,69.80
2017-04-07T10:12:07.500Z,69.80
2017-04-07T10:13:07.574Z,69.80
2017-04-07T10:14:08.406Z,69.80
2017-04-07T10:15:08.454Z,69.90
2017-04-07T10:16:09.324Z,70.50
2017-04-07T10:17:09.655Z,70.10
2017-04-07T10:18:09.877Z,70.10
2017-04-07T10:19:10.063Z,70.00
2017-04-07T10:20:10.083Z,69.90
2017-04-07T10:21:10.369Z,69.80
2017-04-07T10:22:10.791Z,69.60
2017-04-07T10:23:10.910Z,69.60
2017-04-07T10:24:11.001Z,70.00
2017-04-07T10:25:11.058Z,70.00
2017-04-07T10:26:11.105Z,70.20
2017-04-07T10:27:12.278Z,70.30
2017-04-07T10:28:12.618Z,70.10
2017-04-07T10:29:12.764Z,70.40
2017-04-07T10:30:12.853Z,70.60
2017-04-07T10:31:12.918Z,70.60
2017-04-07T10:32:13.410Z,70.50
2017-04-07T10:33:13.554Z,70.60
2017-04-07T10:34:13.758Z,70.40
2017-04-07T10:35:13.869Z,70.30
2017-04-07T10:36:14.043Z,70.40
2017-04-07T10:37:14.436Z,70.40
2017-04-07T10:38:15.275Z,70.20
2017-04-07T10:39:16.121Z,70.20
2017-04-07T10:40:16.262Z,69.90
2017-04-07T10:41:16.398Z,69.90
2017-04-07T10:42:16.940Z,70.10
2017-04-07T10:43:16.949Z,70.30
2017-04-07T10:44:17.018Z,70.40
2017-04-07T10:45:17.133Z,70.20
2017-04-07T10:46:17.175Z,70.00
2017-04-07T10:47:18.439Z,69.90
2017-04-07T10:48:18.456Z,69.70
2017-04-07T10:49:18.554Z,69.60
2017-04-07T10:50:19.349Z,69.60
2017-04-07T10:51:20.102Z,69.60
2017-04-07T10:52:20.491Z,69.70
2017-04-07T10:53:20.757Z,69.50
2017-04-07T10:54:20.954Z,69.60
2017-04-07T10:55:21.106Z,69.70
2017-04-07T10:56:21.924Z,70.00
2017-04-07T10:57:23.009Z,70.00
2017-04-07T10:58:23.061Z,70.20
2017-04-07T10:59:23.868Z,70.40
2017-04-07T11:00:23.912Z,70.60
2017-04-07T11:01:24.775Z,70.60
2017-04-07T11:02:25.326Z,70.60
2017-04-07T11:03:25.397Z,70.60
2017-04-07T11:04:25.715Z,70.50
2017-04-07T11:05:25.830Z,70.50
2017-04-07T11:06:26.073Z,70.40
2017-04-07T11:07:26.526Z,70.40
2017-04-07T11:09:27.723Z,70.70
2017-04-07T11:10:27.832Z,70.70
2017-04-07T11:11:27.921Z,70.50
2017-04-07T11:12:28.582Z,70.40
2017-04-07T11:13:28.663Z,70.30
2017-04-07T11:14:28.741Z,70.20
2017-04-07T11:15:28.879Z,70.00
2017-04-07T11:16:29.032Z,70.30
2017-04-07T11:17:30.205Z,70.00
2017-04-07T11:18:31.070Z,70.20
2017-04-07T11:19:31.215Z,70.20
2017-04-07T11:20:31.350Z,70.60
2017-04-07T11:21:32.247Z,70.00
2017-04-07T11:22:34.085Z,69.70
2017-04-07T11:23:34.246Z,69.80
2017-04-07T11:24:34.462Z,69.70
2017-04-07T11:25:34.785Z,69.70
2017-04-07T11:26:34.904Z,69.40
2017-04-07T11:27:35.348Z,69.00
2017-04-07T11:28:35.471Z,69.60
2017-04-07T11:29:35.479Z,69.00
2017-04-07T11:30:35.656Z,69.10
2017-04-07T11:31:35.722Z,69.10
2017-04-07T11:32:36.219Z,69.20
2017-04-07T11:33:36.328Z,69.20
2017-04-07T11:34:36.368Z,69.20
2017-04-07T11:35:36.460Z,69.90
2017-04-07T11:36:36.611Z,69.00
2017-04-07T11:37:37.064Z,69.20
2017-04-07T11:38:37.131Z,69.50
2017-04-07T11:39:37.220Z,68.70
2017-04-07T11:40:37.267Z,69.00
2017-04-07T11:41:38.102Z,68.90
2017-04-07T11:42:38.511Z,68.60
2017-04-07T11:43:40.611Z,68.60
2017-04-07T11:44:40.735Z,68.80
2017-04-07T11:45:40.788Z,68.60
2017-04-07T11:46:40.820Z,68.80
2017-04-07T11:47:41.195Z,68.90
2017-04-07T11:48:41.326Z,68.50
2017-04-07T11:49:41.427Z,68.70
2017-04-07T11:50:42.216Z,68.40
2017-04-07T11:51:42.311Z,68.60
2017-04-07T11:52:42.866Z,68.20
2017-04-07T11:53:42.949Z,68.40
2017-04-07T11:54:43.134Z,67.90
2017-04-07T11:55:43.241Z,68.10
2017-04-07T11:56:49.621Z,68.40
2017-04-07T11:57:49.977Z,68.50
2017-04-07T11:58:50.011Z,68.90
2017-04-07T11:59:50.019Z,68.90
2017-04-07T12:00:50.058Z,69.30
2017-04-07T12:01:50.155Z,69.30
2017-04-07T12:02:50.505Z,69.20
2017-04-07T12:03:50.598Z,68.70
2017-04-07T12:04:50.780Z,68.50
2017-04-07T12:05:50.862Z,68.90
2017-04-07T12:06:50.949Z,68.90
2017-04-07T12:08:52.294Z,68.50
2017-04-07T12:09:54.044Z,68.70
2017-04-07T12:10:55.125Z,68.60
2017-04-07T12:11:55.545Z,68.40
2017-04-07T12:12:56.087Z,68.00
2017-04-07T12:13:56.179Z,67.90
2017-04-07T12:14:56.225Z,67.70
2017-04-07T12:15:57.080Z,67.60
2017-04-07T12:16:57.175Z,67.30
2017-04-07T12:17:57.683Z,67.30
2017-04-07T12:18:58.578Z,67.20
2017-04-07T12:19:58.742Z,67.60
2017-04-07T12:20:58.829Z,67.60
2017-04-07T12:21:58.983Z,67.60
2017-04-07T12:22:59.549Z,67.70
2017-04-07T12:23:59.632Z,67.80
2017-04-07T12:25:00.411Z,67.80
2017-04-07T12:26:00.596Z,68.10
2017-04-07T12:27:01.345Z,67.90
2017-04-07T12:28:01.755Z,67.90
2017-04-07T12:29:01.896Z,68.20
2017-04-07T12:30:02.478Z,68.30
2017-04-07T12:31:02.519Z,68.70
2017-04-07T12:32:02.710Z,68.30
2017-04-07T12:33:03.204Z,68.40
2017-04-07T12:34:04.034Z,68.40
2017-04-07T12:35:04.863Z,68.30
2017-04-07T12:36:05.687Z,69.10
2017-04-07T12:37:06.484Z,68.40
2017-04-07T12:38:06.819Z,68.50
2017-04-07T12:39:07.666Z,68.10
2017-04-07T12:40:08.423Z,68.40
2017-04-07T12:41:08.643Z,68.40
2017-04-07T12:42:08.762Z,68.50
2017-04-07T12:43:09.091Z,68.50
2017-04-07T12:44:09.120Z,68.20
2017-04-07T12:45:09.184Z,68.10
2017-04-07T12:46:09.222Z,67.70
2017-04-07T12:47:10.046Z,67.70
2017-04-07T12:48:11.303Z,67.60
2017-04-07T12:49:11.407Z,68.70
2017-04-07T12:50:11.460Z,67.90
2017-04-07T12:51:11.496Z,67.90
2017-04-07T12:52:11.498Z,67.90
2017-04-07T12:53:11.951Z,67.80
2017-04-07T12:54:12.010Z,68.40
2017-04-07T12:55:12.169Z,67.60
2017-04-07T12:56:12.354Z,67.90
2017-04-07T12:57:13.147Z,67.70
2017-04-07T12:58:13.626Z,67.80
2017-04-07T12:59:13.713Z,67.50
2017-04-07T13:00:14.503Z,67.70
2017-04-07T13:01:14.701Z,67.70
2017-04-07T13:02:14.842Z,67.80
2017-04-07T13:03:15.283Z,67.90
2017-04-07T13:05:15.738Z,68.00
2017-04-07T13:06:15.850Z,68.10
2017-04-07T13:07:15.931Z,68.40
2017-04-07T13:08:17.006Z,68.30